createdAt,value
2018-07-20T00:01:53.357Z,16.30
2018-07-20T00:04:21.242Z,16.20
2018-07-20T00:06:49.230Z,16.10
2018-07-20T00:09:17.177Z,15.90
2018-07-20T00:11:45.044Z,16.00
2018-07-20T00:14:13.024Z,15.90
2018-07-20T00:16:40.750Z,15.90
2018-07-20T00:19:08.423Z,15.90
2018-07-20T00:21:36.153Z,16.00
2018-07-20T00:24:03.951Z,15.90
2018-07-20T00:26:31.640Z,15.90
2018-07-20T00:28:59.456Z,15.90
2018-07-20T00:31:27.409Z,15.90
2018-07-20T00:33:55.137Z,15.90
2018-07-20T00:36:22.913Z,15.80
2018-07-20T00:38:50.672Z,15.80
2018-07-20T00:41:18.541Z,15.70
2018-07-20T00:43:47.026Z,15.80
2018-07-20T00:46:14.865Z,15.70
2018-07-20T00:48:42.711Z,15.60
2018-07-20T00:51:10.658Z,15.60
2018-07-20T00:53:38.657Z,15.60
2018-07-20T00:56:06.604Z,15.50
2018-07-20T00:58:34.424Z,15.70
2018-07-20T01:01:02.183Z,15.60
2018-07-20T01:03:29.941Z,15.70
2018-07-20T01:05:57.725Z,15.60
2018-07-20T01:08:25.498Z,15.60
2018-07-20T01:10:53.452Z,15.60
2018-07-20T01:13:21.153Z,15.50
2018-07-20T01:15:49.262Z,15.60
2018-07-20T01:18:17.096Z,15.50
2018-07-20T01:20:44.849Z,15.50
2018-07-20T01:23:12.700Z,15.60
2018-07-20T01:25:40.648Z,15.60
2018-07-20T01:28:08.336Z,15.60
2018-07-20T01:30:36.287Z,15.60
2018-07-20T01:33:03.946Z,15.60
2018-07-20T01:35:31.605Z,15.50
2018-07-20T01:37:59.359Z,15.40
2018-07-20T01:40:27.254Z,15.30
2018-07-20T01:42:54.940Z,15.30
2018-07-20T01:45:22.937Z,15.40
2018-07-20T01:47:50.641Z,15.40
2018-07-20T01:50:18.276Z,15.40
2018-07-20T01:52:46.068Z,15.40
2018-07-20T01:55:13.799Z,15.50
2018-07-20T01:57:41.468Z,15.50
2018-07-20T02:00:10.080Z,15.50
2018-07-20T02:02:37.881Z,15.50
2018-07-20T02:05:05.899Z,15.40
2018-07-20T02:07:33.861Z,15.30
2018-07-20T02:10:01.658Z,15.30
2018-07-20T02:12:29.565Z,15.30
2018-07-20T02:14:57.432Z,15.40
2018-07-20T02:17:26.405Z,15.40
2018-07-20T02:19:54.305Z,15.40
2018-07-20T02:22:22.332Z,15.40
2018-07-20T02:24:50.172Z,15.40
2018-07-20T02:27:18.003Z,15.50
2018-07-20T02:29:45.917Z,15.30
2018-07-20T02:32:13.792Z,15.30
2018-07-20T02:34:41.688Z,15.30
2018-07-20T02:37:10.405Z,15.40
2018-07-20T02:39:38.197Z,15.30
2018-07-20T02:42:06.009Z,15.30
2018-07-20T02:44:33.805Z,15.20
2018-07-20T02:47:01.575Z,15.30
2018-07-20T02:49:29.657Z,15.20
2018-07-20T02:51:57.456Z,15.10
2018-07-20T02:54:25.315Z,15.10
2018-07-20T02:56:54.029Z,15.10
2018-07-20T02:59:21.856Z,15.10
2018-07-20T03:01:49.701Z,15.10
2018-07-20T03:04:17.424Z,15.20
2018-07-20T03:06:46.090Z,15.10
2018-07-20T03:09:14.778Z,15.10
2018-07-20T03:11:44.480Z,15.10
2018-07-20T03:14:12.312Z,15.00
2018-07-20T03:16:40.222Z,14.90
2018-07-20T03:19:09.019Z,14.90
2018-07-20T03:21:37.279Z,14.90
2018-07-20T03:24:05.121Z,14.80
2018-07-20T03:26:33.085Z,14.80
2018-07-20T03:29:00.792Z,14.80
2018-07-20T03:31:29.233Z,14.80
2018-07-20T03:33:57.061Z,14.70
2018-07-20T03:36:24.921Z,14.70
2018-07-20T03:38:52.710Z,14.70
2018-07-20T03:41:20.439Z,14.60
2018-07-20T03:43:48.480Z,14.60
2018-07-20T03:46:16.498Z,14.60
2018-07-20T03:48:44.248Z,14.70
2018-07-20T03:51:12.228Z,14.60
2018-07-20T03:53:40.017Z,14.60
2018-07-20T03:56:07.728Z,14.60
2018-07-20T03:58:35.664Z,14.70
2018-07-20T04:01:03.641Z,14.70
2018-07-20T04:03:31.434Z,14.80
2018-07-20T04:05:59.180Z,14.70
2018-07-20T04:08:26.995Z,14.70
2018-07-20T04:10:54.720Z,14.80
2018-07-20T04:13:22.568Z,14.80
2018-07-20T04:15:50.484Z,14.80
2018-07-20T04:18:18.432Z,14.80
2018-07-20T04:20:46.372Z,14.90
2018-07-20T04:23:14.216Z,15.00
2018-07-20T04:25:44.180Z,15.00
2018-07-20T04:28:11.936Z,15.10
2018-07-20T04:30:39.781Z,15.20
2018-07-20T04:33:07.519Z,15.20
2018-07-20T04:35:35.842Z,15.30
2018-07-20T04:38:03.705Z,15.40
2018-07-20T04:40:31.740Z,15.50
2018-07-20T04:43:00.217Z,15.50
2018-07-20T04:45:28.037Z,15.70
2018-07-20T04:47:56.313Z,15.80
2018-07-20T04:50:24.716Z,16.00
2018-07-20T04:52:52.464Z,16.20
2018-07-20T04:55:20.260Z,16.40
2018-07-20T04:57:48.256Z,16.50
2018-07-20T05:00:16.021Z,16.60
2018-07-20T05:02:43.905Z,16.70
2018-07-20T05:05:11.733Z,16.80
2018-07-20T05:07:39.548Z,16.90
2018-07-20T05:10:07.518Z,16.90
2018-07-20T05:12:36.008Z,16.90
2018-07-20T05:15:03.797Z,17.10
2018-07-20T05:17:31.837Z,17.20
2018-07-20T05:20:00.699Z,17.40
2018-07-20T05:24:56.380Z,17.40
2018-07-20T05:27:24.679Z,17.40
2018-07-20T05:29:52.640Z,17.40
2018-07-20T05:32:20.478Z,17.40
2018-07-20T05:34:48.268Z,17.50
2018-07-20T05:37:16.101Z,17.70
2018-07-20T05:39:44.558Z,17.70
2018-07-20T05:42:12.396Z,17.80
2018-07-20T05:44:40.300Z,17.90
2018-07-20T05:47:08.957Z,18.20
2018-07-20T05:49:36.680Z,18.40
2018-07-20T05:52:04.713Z,18.60
2018-07-20T05:54:33.584Z,18.90
2018-07-20T05:57:01.399Z,19.30
2018-07-20T05:59:29.296Z,19.70
2018-07-20T06:01:57.310Z,20.20
2018-07-20T06:04:25.237Z,20.50
2018-07-20T06:06:53.174Z,20.60
2018-07-20T06:09:21.180Z,20.70
2018-07-20T06:11:49.016Z,20.80
2018-07-20T06:14:16.867Z,20.70
2018-07-20T06:16:44.634Z,20.70
2018-07-20T06:19:12.332Z,21.00
2018-07-20T06:21:40.033Z,21.50
2018-07-20T06:24:08.169Z,21.60
2018-07-20T06:26:35.812Z,21.90
2018-07-20T06:29:03.545Z,22.20
2018-07-20T06:31:31.474Z,22.30
2018-07-20T06:33:59.989Z,22.60
2018-07-20T06:36:27.758Z,23.00
2018-07-20T06:38:55.620Z,23.60
2018-07-20T06:41:23.756Z,24.70
2018-07-20T06:43:51.463Z,25.50
2018-07-20T06:46:19.868Z,26.60
2018-07-20T06:48:47.622Z,27.30
2018-07-20T06:51:15.389Z,28.00
2018-07-20T06:53:43.228Z,29.10
2018-07-20T06:56:11.051Z,29.70
2018-07-20T06:58:38.960Z,29.90
2018-07-20T07:01:07.361Z,30.60
2018-07-20T07:03:35.343Z,31.50
2018-07-20T07:06:03.343Z,31.80
2018-07-20T07:08:31.037Z,33.00
2018-07-20T07:10:59.605Z,33.10
2018-07-20T07:13:28.601Z,33.40
2018-07-20T07:15:56.496Z,34.10
2018-07-20T07:20:52.623Z,34.30
2018-07-20T07:23:20.824Z,35.20
2018-07-20T07:25:49.183Z,35.60
2018-07-20T07:28:17.440Z,35.00
2018-07-20T07:30:45.234Z,35.60
2018-07-20T07:33:13.876Z,35.20
2018-07-20T07:35:42.721Z,35.10
2018-07-20T07:38:11.342Z,33.10
2018-07-20T07:40:39.252Z,31.60
2018-07-20T07:43:08.203Z,31.80
2018-07-20T07:45:36.199Z,29.30
2018-07-20T07:48:04.759Z,29.20
2018-07-20T07:53:00.573Z,31.30
2018-07-20T07:55:28.993Z,32.50
2018-07-20T07:57:56.778Z,32.00
2018-07-20T08:00:25.298Z,32.40
2018-07-20T08:02:53.050Z,33.90
2018-07-20T08:05:20.821Z,34.90
2018-07-20T08:07:48.641Z,34.80
2018-07-20T08:10:16.432Z,34.20
2018-07-20T08:12:44.378Z,32.40
2018-07-20T08:15:12.945Z,32.70
2018-07-20T08:20:08.947Z,33.20
2018-07-20T08:22:37.486Z,32.70
2018-07-20T08:25:05.300Z,30.90
2018-07-20T08:27:34.174Z,29.00
2018-07-20T08:30:01.985Z,28.10
2018-07-20T08:32:29.700Z,27.90
2018-07-20T08:34:58.324Z,27.50
2018-07-20T08:37:26.103Z,27.20
2018-07-20T08:39:54.038Z,27.00
2018-07-20T08:42:21.819Z,27.10
2018-07-20T08:44:50.152Z,27.30
2018-07-20T08:47:18.161Z,27.70
2018-07-20T08:52:13.525Z,29.40
2018-07-20T08:54:41.946Z,30.80
2018-07-20T08:57:10.236Z,31.30
2018-07-20T08:59:38.925Z,30.00
2018-07-20T09:02:06.881Z,30.70
2018-07-20T09:04:34.724Z,30.30
2018-07-20T09:07:02.530Z,30.20
2018-07-20T09:09:30.418Z,30.10
2018-07-20T09:11:58.205Z,31.10
2018-07-20T09:14:26.660Z,32.40
2018-07-20T09:16:54.538Z,32.10
2018-07-20T09:19:22.388Z,33.20
2018-07-20T09:21:50.293Z,33.90
2018-07-20T09:24:17.949Z,34.30
2018-07-20T09:26:45.787Z,33.20
2018-07-20T09:29:14.459Z,31.80
2018-07-20T09:31:42.262Z,31.90
2018-07-20T09:34:10.052Z,31.20
2018-07-20T09:36:37.830Z,31.80
2018-07-20T09:41:34.952Z,30.50
2018-07-20T09:44:02.775Z,30.20
2018-07-20T09:48:58.466Z,31.80
2018-07-20T09:51:26.142Z,32.50
2018-07-20T09:53:53.934Z,33.40
2018-07-20T09:56:28.776Z,33.50
2018-07-20T09:58:56.666Z,33.10
2018-07-20T10:01:24.443Z,32.40
2018-07-20T10:03:52.368Z,33.30
2018-07-20T10:06:20.197Z,34.20
2018-07-20T10:08:47.952Z,34.60
2018-07-20T10:11:15.701Z,35.10
2018-07-20T10:13:43.517Z,35.20
2018-07-20T10:16:11.344Z,35.00
2018-07-20T10:18:39.209Z,35.30
2018-07-20T10:21:06.941Z,35.90
2018-07-20T10:23:34.689Z,34.80
2018-07-20T10:26:02.468Z,34.80
2018-07-20T10:28:30.177Z,35.20
2018-07-20T10:30:58.361Z,34.60
2018-07-20T10:33:26.155Z,32.00
2018-07-20T10:35:53.832Z,31.50
2018-07-20T10:38:21.516Z,31.20
2018-07-20T10:40:49.502Z,31.90
2018-07-20T10:43:17.287Z,31.90
2018-07-20T10:45:45.144Z,31.60
2018-07-20T10:48:13.009Z,32.20
2018-07-20T10:50:40.797Z,33.00
2018-07-20T10:53:08.649Z,33.60
2018-07-20T10:55:36.775Z,34.30
2018-07-20T10:58:05.315Z,34.40
2018-07-20T11:00:33.036Z,35.10
2018-07-20T11:03:00.778Z,34.20
2018-07-20T11:05:29.069Z,32.70
2018-07-20T11:07:57.003Z,32.90
2018-07-20T11:10:25.317Z,33.00
2018-07-20T11:12:53.241Z,31.70
2018-07-20T11:15:21.181Z,31.60
2018-07-20T11:17:49.487Z,31.90
2018-07-20T11:20:17.380Z,32.30
2018-07-20T11:22:45.216Z,31.80
2018-07-20T11:25:13.461Z,32.00
2018-07-20T11:27:41.351Z,33.50
2018-07-20T11:30:09.160Z,34.70
2018-07-20T11:32:36.965Z,34.80
2018-07-20T11:35:04.972Z,33.70
2018-07-20T11:37:33.865Z,34.30
2018-07-20T11:40:01.661Z,35.00
2018-07-20T11:42:30.614Z,35.60
2018-07-20T11:44:58.508Z,36.00
2018-07-20T11:47:26.341Z,35.70
2018-07-20T11:49:54.129Z,35.40
2018-07-20T11:52:21.810Z,34.60
2018-07-20T11:54:49.634Z,34.70
2018-07-20T11:57:17.389Z,34.40
2018-07-20T11:59:45.484Z,34.00
2018-07-20T12:02:13.940Z,33.80
2018-07-20T12:04:41.746Z,33.90
2018-07-20T12:07:09.602Z,34.90
2018-07-20T12:09:37.306Z,35.10
2018-07-20T12:12:05.004Z,35.50
2018-07-20T12:14:32.783Z,34.70
2018-07-20T12:17:00.618Z,33.60
2018-07-20T12:19:28.412Z,33.70
2018-07-20T12:21:56.114Z,34.30
2018-07-20T12:24:24.018Z,34.70
2018-07-20T12:26:52.385Z,35.70
2018-07-20T12:29:20.277Z,36.70
2018-07-20T12:31:48.197Z,37.90
2018-07-20T12:34:15.849Z,37.10
2018-07-20T12:49:48.086Z,36.00
2018-07-20T12:52:15.759Z,35.00
2018-07-20T12:54:43.476Z,35.70
2018-07-20T12:57:11.700Z,35.40
2018-07-20T12:59:39.460Z,35.70
2018-07-20T13:02:07.504Z,36.00
2018-07-20T13:04:35.339Z,36.00
2018-07-20T13:07:03.419Z,36.90
2018-07-20T13:09:31.269Z,37.50
2018-07-20T13:11:59.116Z,38.40
2018-07-20T13:14:27.028Z,38.10
2018-07-20T13:16:54.971Z,38.30
2018-07-20T13:19:22.794Z,38.90
2018-07-20T13:21:51.181Z,38.60
2018-07-20T13:24:19.602Z,39.20
2018-07-20T13:26:47.522Z,39.90
2018-07-20T13:29:15.392Z,40.00
2018-07-20T13:31:43.101Z,41.40
2018-07-20T13:34:10.841Z,41.60
2018-07-20T13:36:38.737Z,42.20
2018-07-20T13:39:08.816Z,42.70
2018-07-20T13:41:36.888Z,43.30
2018-07-20T13:44:04.801Z,41.60
2018-07-20T13:46:32.522Z,39.80
2018-07-20T13:49:00.309Z,40.40
2018-07-20T13:51:28.032Z,39.90
2018-07-20T13:56:24.143Z,38.90
2018-07-20T13:58:51.953Z,37.90
2018-07-20T14:01:19.655Z,36.80
2018-07-20T14:03:47.469Z,36.40
2018-07-20T14:06:15.896Z,35.00
2018-07-20T14:08:43.912Z,33.50
2018-07-20T14:11:11.649Z,32.70
2018-07-20T14:13:39.409Z,32.20
2018-07-20T14:16:08.035Z,33.50
2018-07-20T14:18:36.424Z,34.40
2018-07-20T14:21:04.305Z,34.20
2018-07-20T14:23:33.004Z,34.00
2018-07-20T14:26:00.764Z,34.80
2018-07-20T14:28:28.483Z,37.00
2018-07-20T14:30:57.284Z,38.40
2018-07-20T14:33:25.170Z,40.20
2018-07-20T14:35:53.034Z,40.60
2018-07-20T14:38:20.860Z,39.40
2018-07-20T14:43:16.236Z,35.70
2018-07-20T14:45:43.936Z,34.20
2018-07-20T14:48:12.388Z,33.80
2018-07-20T14:50:40.506Z,35.00
2018-07-20T14:53:08.329Z,36.30
2018-07-20T14:55:36.302Z,37.30
2018-07-20T14:58:04.124Z,38.40
2018-07-20T15:00:31.992Z,38.90
2018-07-20T15:02:59.708Z,39.30
2018-07-20T15:05:27.489Z,38.90
2018-07-20T15:07:56.210Z,38.70
2018-07-20T15:10:24.067Z,38.10
2018-07-20T15:12:51.910Z,37.90
2018-07-20T15:15:19.636Z,36.80
2018-07-20T15:17:47.464Z,36.30
2018-07-20T15:20:15.256Z,36.70
2018-07-20T15:22:43.005Z,37.00
2018-07-20T15:25:10.778Z,36.10
2018-07-20T15:27:38.708Z,35.80
2018-07-20T15:32:34.132Z,35.00
2018-07-20T15:35:02.026Z,34.70
2018-07-20T15:39:57.671Z,35.50
2018-07-20T15:47:43.755Z,36.10
2018-07-20T15:50:11.583Z,37.00
2018-07-20T15:55:07.560Z,37.20
2018-07-20T15:57:35.257Z,36.70
2018-07-20T16:00:03.323Z,35.50
2018-07-20T16:02:31.863Z,34.20
2018-07-20T16:04:59.697Z,32.90
2018-07-20T16:07:27.529Z,32.50
2018-07-20T16:09:55.233Z,32.00
2018-07-20T16:12:23.202Z,31.30
2018-07-20T16:14:51.112Z,31.10
2018-07-20T16:17:19.014Z,31.00
2018-07-20T16:19:46.781Z,31.00
2018-07-20T16:22:14.588Z,31.10
2018-07-20T16:40:14.541Z,31.20
2018-07-20T16:42:42.864Z,31.00
2018-07-20T16:45:10.632Z,30.20
2018-07-20T16:47:38.421Z,30.20
2018-07-20T16:50:06.134Z,30.10
2018-07-20T16:52:33.942Z,30.00
2018-07-20T16:55:01.637Z,29.90
2018-07-20T16:59:57.266Z,29.70
2018-07-20T17:02:25.110Z,29.50
2018-07-20T17:04:54.029Z,29.40
2018-07-20T17:07:21.776Z,29.00
2018-07-20T17:09:50.026Z,28.70
2018-07-20T17:12:17.873Z,28.50
2018-07-20T17:14:45.777Z,27.90
2018-07-20T17:17:13.565Z,27.50
2018-07-20T17:19:41.437Z,27.30
2018-07-20T17:22:09.320Z,27.00
2018-07-20T17:24:37.280Z,26.70
2018-07-20T17:27:05.273Z,26.30
2018-07-20T17:29:33.953Z,26.10
2018-07-20T17:32:01.958Z,25.80
2018-07-20T17:34:29.890Z,25.50
2018-07-20T17:36:57.845Z,25.40
2018-07-20T17:39:25.813Z,25.20
2018-07-20T17:41:54.186Z,25.20
2018-07-20T17:44:22.017Z,25.10
2018-07-20T17:46:49.945Z,25.10
2018-07-20T17:49:17.865Z,25.10
2018-07-20T17:51:46.031Z,25.00
2018-07-20T17:54:13.841Z,24.80
2018-07-20T17:56:41.641Z,24.60
2018-07-20T17:59:09.337Z,24.50
2018-07-20T18:01:37.316Z,24.40
2018-07-20T18:04:05.391Z,24.10
2018-07-20T18:06:33.321Z,24.00
2018-07-20T18:09:01.401Z,23.90
2018-07-20T18:11:29.176Z,23.70
2018-07-20T18:13:57.381Z,23.70
2018-07-20T18:16:25.078Z,23.60
2018-07-20T18:18:52.892Z,23.50
2018-07-20T18:21:21.236Z,23.30
2018-07-20T18:23:49.702Z,23.20
2018-07-20T18:26:17.432Z,23.30
2018-07-20T18:28:45.333Z,23.30
2018-07-20T18:31:13.148Z,23.20
2018-07-20T18:33:41.505Z,23.30
2018-07-20T18:36:09.307Z,23.30
2018-07-20T18:38:37.557Z,23.30
2018-07-20T18:41:05.400Z,23.30
2018-07-20T18:43:33.456Z,23.30
2018-07-20T18:46:01.393Z,23.30
2018-07-20T18:48:29.192Z,23.40
2018-07-20T18:50:57.297Z,23.40
2018-07-20T18:53:25.240Z,23.40
2018-07-20T18:55:53.252Z,23.40
2018-07-20T18:58:21.244Z,23.40
2018-07-20T19:00:49.391Z,23.30
2018-07-20T19:03:17.188Z,23.20
2018-07-20T19:05:45.129Z,23.00
2018-07-20T19:08:13.216Z,22.90
2018-07-20T19:13:08.742Z,22.70
2018-07-20T19:15:38.085Z,22.70
2018-07-20T19:18:05.830Z,22.60
2018-07-20T19:20:33.550Z,22.60
2018-07-20T19:23:01.319Z,22.60
2018-07-20T19:25:29.053Z,22.60
2018-07-20T19:27:56.839Z,22.60
2018-07-20T19:32:54.366Z,22.50
2018-07-20T19:35:22.273Z,22.50
2018-07-20T19:37:50.248Z,22.30
2018-07-20T19:40:18.068Z,22.30
2018-07-20T19:42:45.841Z,22.30
2018-07-20T19:45:13.776Z,22.40
2018-07-20T19:47:42.295Z,22.40
2018-07-20T19:50:10.021Z,22.40
2018-07-20T19:52:38.575Z,22.40
2018-07-20T19:55:06.851Z,22.30
2018-07-20T19:57:35.449Z,22.20
2018-07-20T20:00:04.997Z,22.10
2018-07-20T20:02:32.830Z,22.10
2018-07-20T20:05:01.185Z,22.10
2018-07-20T20:07:29.152Z,21.80
2018-07-20T20:09:56.817Z,21.40
2018-07-20T20:12:25.010Z,21.40
2018-07-20T20:14:53.035Z,21.60
2018-07-20T20:17:20.907Z,21.60
2018-07-20T20:19:48.633Z,21.70
2018-07-20T20:22:16.814Z,21.70
2018-07-20T20:24:44.916Z,21.60
2018-07-20T20:27:12.878Z,21.60
2018-07-20T20:29:40.768Z,21.70
2018-07-20T20:32:09.245Z,21.60
2018-07-20T20:34:37.679Z,21.50
2018-07-20T20:37:05.804Z,21.40
2018-07-20T20:39:33.719Z,21.30
2018-07-20T20:42:01.505Z,21.30
2018-07-20T20:44:29.475Z,21.20
2018-07-20T20:46:57.603Z,21.10
2018-07-20T20:49:25.974Z,21.00
2018-07-20T20:51:53.798Z,20.90
2018-07-20T20:54:21.728Z,21.00
2018-07-20T20:59:17.083Z,20.90
2018-07-20T21:01:44.867Z,20.90
2018-07-20T21:04:12.858Z,20.80
2018-07-20T21:06:40.828Z,20.80
2018-07-20T21:09:09.364Z,20.70
2018-07-20T21:11:37.589Z,20.60
2018-07-20T21:14:05.494Z,20.60
2018-07-20T21:16:33.984Z,20.40
2018-07-20T21:19:01.956Z,20.30
2018-07-20T21:21:29.672Z,20.30
2018-07-20T21:23:57.699Z,20.20
2018-07-20T21:26:25.485Z,20.10
2018-07-20T21:31:20.736Z,19.90
2018-07-20T21:33:48.501Z,19.90
2018-07-20T21:36:17.104Z,19.90
2018-07-20T21:38:44.865Z,19.90
2018-07-20T21:41:12.685Z,19.70
2018-07-20T21:43:40.781Z,19.50
2018-07-20T21:46:08.619Z,19.30
2018-07-20T21:48:36.403Z,19.20
2018-07-20T21:51:04.654Z,18.90
2018-07-20T21:53:32.507Z,19.00
2018-07-20T21:56:00.390Z,19.20
2018-07-20T21:58:28.214Z,19.30
2018-07-20T22:00:56.146Z,19.30
2018-07-20T22:03:24.200Z,19.40
2018-07-20T22:05:52.728Z,19.50
2018-07-20T22:08:21.436Z,19.50
2018-07-20T22:10:49.882Z,19.50
2018-07-20T22:13:17.655Z,19.50
2018-07-20T22:15:45.404Z,19.50
2018-07-20T22:18:14.225Z,19.20
2018-07-20T22:20:41.906Z,19.00
2018-07-20T22:23:09.857Z,19.10
2018-07-20T22:25:38.297Z,19.10
2018-07-20T22:28:06.662Z,19.20
2018-07-20T22:30:34.474Z,19.30
2018-07-20T22:33:03.145Z,19.40
2018-07-20T22:35:31.578Z,19.70
2018-07-20T22:38:00.456Z,19.80
2018-07-20T22:40:28.431Z,20.00
2018-07-20T22:42:56.256Z,20.10
2018-07-20T22:45:23.929Z,20.20
2018-07-20T22:47:52.288Z,20.20
2018-07-20T22:50:20.126Z,20.10
2018-07-20T22:52:48.089Z,20.00
2018-07-20T22:55:16.050Z,19.70
2018-07-20T22:57:43.786Z,19.60
2018-07-20T23:00:11.704Z,19.60
2018-07-20T23:02:39.436Z,19.50
2018-07-20T23:05:07.101Z,19.60
2018-07-20T23:10:03.597Z,19.70
2018-07-20T23:12:31.508Z,19.80
2018-07-20T23:14:59.366Z,19.80
2018-07-20T23:17:27.350Z,19.70
2018-07-20T23:19:55.358Z,19.60
2018-07-20T23:22:23.457Z,19.50
2018-07-20T23:24:51.324Z,19.40
2018-07-20T23:27:19.112Z,19.50
2018-07-20T23:29:47.665Z,19.50
2018-07-20T23:32:15.871Z,19.40
2018-07-20T23:34:43.594Z,19.40
2018-07-20T23:37:11.368Z,19.40
2018-07-20T23:39:39.744Z,19.40
2018-07-20T23:42:07.657Z,19.40
2018-07-20T23:44:35.474Z,19.30
2018-07-20T23:47:03.236Z,19.20
2018-07-20T23:49:30.969Z,19.30
2018-07-20T23:51:59.589Z,19.20
2018-07-20T23:54:27.788Z,19.20
2018-07-20T23:56:55.517Z,19.10
2018-07-20T23:59:23.369Z,19.00
